Time;durP1;ratioP1;P1;durP2;ratioP2;P2;SDS_P1;SDS_P2;PMS_P1;PMS_P2;Temp;Humidity;BMP_temperature;BMP_pressure;BME280_temperature;BME280_humidity;BME280_pressure;Samples;Min_cycle;Max_cycle;Signal;HPM_P1;HPM_P2
2022/03/26 00:00:16;;;;;;;32.03;13.90;;;;;;;6.99;64.41;103036.38;5040528;28;20415;-64
2022/03/26 00:02:42;;;;;;;35.03;15.65;;;;;;;6.97;65.35;103046.38;5027959;28;20377;-66
2022/03/26 00:05:08;;;;;;;36.65;17.42;;;;;;;6.90;66.28;103037.47;5035029;22;20115;-85
2022/03/26 00:07:33;;;;;;;35.35;15.50;;;;;;;6.92;65.57;103035.66;5046586;28;20129;-83
2022/03/26 00:09:59;;;;;;;40.63;17.02;;;;;;;6.93;64.69;103036.53;5024528;28;20041;-85
2022/03/26 00:12:25;;;;;;;41.80;16.90;;;;;;;6.94;65.84;103039.19;5029951;28;20052;-83
2022/03/26 00:14:50;;;;;;;34.33;14.95;;;;;;;6.88;65.36;103033.94;5019718;28;20034;-84
2022/03/26 00:17:16;;;;;;;37.25;14.75;;;;;;;6.81;65.04;103046.72;5027719;28;20025;-87
2022/03/26 00:19:41;;;;;;;31.50;14.75;;;;;;;6.77;65.25;103042.28;5014917;28;20056;-83
2022/03/26 00:22:07;;;;;;;39.60;15.10;;;;;;;6.74;65.34;103036.03;5029335;28;20029;-82
2022/03/26 00:24:32;;;;;;;31.55;14.73;;;;;;;6.72;66.07;103030.69;5009443;28;20021;-83
2022/03/26 00:26:58;;;;;;;33.83;14.88;;;;;;;6.68;65.68;103030.78;4998404;28;20042;-84
2022/03/26 00:29:23;;;;;;;33.08;15.57;;;;;;;6.60;65.61;103026.41;5023900;28;20053;-83
2022/03/26 00:31:49;;;;;;;34.63;15.93;;;;;;;6.56;66.25;103040.00;5012626;28;20029;-85
2022/03/26 00:34:15;;;;;;;30.58;14.75;;;;;;;6.49;66.59;103031.16;5015897;28;20029;-83
2022/03/26 00:36:40;;;;;;;30.48;15.63;;;;;;;6.41;67.07;103029.53;5029309;28;20041;-87
2022/03/26 00:39:06;;;;;;;30.45;15.23;;;;;;;6.39;67.36;103029.56;5030204;28;20044;-83
2022/03/26 00:41:32;;;;;;;37.42;15.00;;;;;;;6.33;66.50;103029.66;5028166;28;20067;-83
2022/03/26 00:43:57;;;;;;;32.60;15.10;;;;;;;6.33;67.07;103029.66;5034727;28;20030;-82
2022/03/26 00:46:24;;;;;;;36.63;14.60;;;;;;;6.30;66.29;103029.75;5028608;28;20518;-85
2022/03/26 00:48:49;;;;;;;32.08;15.52;;;;;;;6.28;66.58;103036.97;5025790;28;20388;-86
2022/03/26 00:51:15;;;;;;;37.40;15.57;;;;;;;6.22;67.51;103040.69;5012155;28;20030;-82
2022/03/26 00:53:42;;;;;;;36.10;15.25;;;;;;;6.16;67.62;103024.59;5027230;28;20028;-86
2022/03/26 00:56:07;;;;;;;31.80;14.45;;;;;;;6.13;67.28;103024.66;5025667;28;20036;-82
2022/03/26 00:58:33;;;;;;;35.28;16.02;;;;;;;6.13;67.50;103019.25;5026222;28;20033;-82
2022/03/26 01:00:58;;;;;;;32.25;14.40;;;;;;;6.19;67.16;103026.34;5027642;28;20164;-82
2022/03/26 01:03:23;;;;;;;32.15;15.55;;;;;;;6.19;68.16;103019.13;5033894;28;20476;-81
2022/03/26 01:05:49;;;;;;;29.60;14.20;;;;;;;6.17;66.28;103022.78;5048443;28;20124;-84
2022/03/26 01:08:14;;;;;;;33.33;15.55;;;;;;;6.16;67.29;103023.72;5047451;28;20106;-83
2022/03/26 01:10:41;;;;;;;34.45;16.50;;;;;;;6.13;68.26;103016.53;5047291;28;20040;-82
2022/03/26 01:13:07;;;;;;;35.53;15.27;;;;;;;6.10;68.14;103006.66;5048078;28;20399;-84
2022/03/26 01:15:33;;;;;;;38.55;16.25;;;;;;;6.05;68.25;103011.25;5046868;28;20036;-81
2022/03/26 01:17:58;;;;;;;32.90;15.75;;;;;;;5.98;68.74;103022.25;5030464;28;20078;-83
2022/03/26 01:20:23;;;;;;;33.60;15.95;;;;;;;5.90;68.48;103019.63;5046838;28;20032;-83
2022/03/26 01:22:49;;;;;;;41.00;16.98;;;;;;;5.87;69.24;103026.00;5045823;28;20021;-83
2022/03/26 01:25:14;;;;;;;28.85;13.43;;;;;;;5.83;67.25;103017.97;5044077;28;20074;-85
2022/03/26 01:27:40;;;;;;;41.20;15.40;;;;;;;5.80;68.05;103020.72;5042012;28;20048;-83
2022/03/26 01:30:06;;;;;;;34.70;17.13;;;;;;;5.80;68.48;103018.91;5046206;28;20021;-85
2022/03/26 01:32:32;;;;;;;36.08;15.00;;;;;;;5.78;68.76;103019.84;5026091;28;20554;-86
2022/03/26 01:34:58;;;;;;;29.77;13.95;;;;;;;5.72;68.85;103018.13;5044993;28;20036;-85
2022/03/26 01:37:24;;;;;;;33.80;15.57;;;;;;;5.63;70.73;103021.88;5041953;28;20075;-85
2022/03/26 01:39:50;;;;;;;30.90;13.73;;;;;;;5.59;70.40;103024.66;5024166;28;20033;-86
2022/03/26 01:42:16;;;;;;;31.33;16.17;;;;;;;5.54;70.03;103034.66;5047308;28;20091;-82
2022/03/26 01:44:42;;;;;;;41.88;15.23;;;;;;;5.53;71.08;103033.75;5036195;28;20389;-84
2022/03/26 01:47:07;;;;;;;36.65;15.23;;;;;;;5.52;70.53;103034.69;5047801;28;20033;-83
2022/03/26 01:49:33;;;;;;;38.92;16.77;;;;;;;5.48;71.30;103024.84;5045428;28;20491;-87
2022/03/26 01:52:00;;;;;;;40.70;16.17;;;;;;;5.53;70.00;103030.16;5047798;28;20021;-83
2022/03/26 01:54:27;;;;;;;30.15;15.25;;;;;;;5.57;70.50;103029.22;5062096;28;20033;-85
2022/03/26 01:56:54;;;;;;;41.38;15.75;;;;;;;5.61;71.34;103037.22;5026141;28;20082;-85
2022/03/26 01:59:19;;;;;;;32.75;14.88;;;;;;;5.58;70.89;103026.47;5029096;28;20036;-87
2022/03/26 02:01:45;;;;;;;39.83;15.65;;;;;;;5.61;70.98;103033.63;5046921;28;20060;-87
2022/03/26 02:04:11;;;;;;;35.33;14.18;;;;;;;5.55;69.83;103031.94;5041216;28;20056;-83
2022/03/26 02:06:39;;;;;;;32.65;15.55;;;;;;;5.54;71.22;103034.66;5030472;28;20032;-84
2022/03/26 02:09:06;;;;;;;40.65;15.63;;;;;;;5.49;70.79;103032.03;5047391;28;20462;-83
2022/03/26 02:11:34;;;;;;;29.45;14.48;;;;;;;5.48;71.06;103029.34;5025798;28;20415;-87
2022/03/26 02:14:02;;;;;;;34.05;15.35;;;;;;;5.44;70.26;103036.59;5047399;28;20021;-82
2022/03/26 02:16:27;;;;;;;32.38;14.45;;;;;;;5.41;69.46;103023.19;5042350;28;20048;-85
2022/03/26 02:18:54;;;;;;;40.25;15.20;;;;;;;5.37;72.09;103016.94;5031187;28;20422;-87
2022/03/26 02:21:20;;;;;;;39.25;15.10;;;;;;;5.39;71.87;103025.00;5041283;28;20029;-87
2022/03/26 02:23:47;;;;;;;32.75;15.10;;;;;;;5.33;71.45;103028.69;5040422;28;20033;-82
2022/03/26 02:26:16;;;;;;;35.85;13.93;;;;;;;5.17;71.36;103027.13;5048459;28;20064;-85
2022/03/26 02:28:44;;;;;;;35.80;15.10;;;;;;;5.06;72.22;103024.59;5047906;28;20048;-83
2022/03/26 02:31:12;;;;;;;42.53;16.50;;;;;;;5.08;73.54;103030.88;5029430;28;20037;-83
2022/03/26 02:33:38;;;;;;;31.10;15.43;;;;;;;5.05;72.30;103027.31;5023457;28;20021;-83
2022/03/26 02:36:04;;;;;;;35.92;15.35;;;;;;;5.05;71.97;103027.31;5019841;28;20040;-83
2022/03/26 02:38:30;;;;;;;37.85;15.35;;;;;;;5.05;72.51;103019.22;5027697;28;20044;-83
2022/03/26 02:40:55;;;;;;;38.53;15.95;;;;;;;4.99;73.29;103020.22;5029180;28;20036;-83
2022/03/26 02:43:21;;;;;;;38.97;16.27;;;;;;;5.03;72.77;103021.03;5046279;28;20123;-84
2022/03/26 02:45:47;;;;;;;41.28;17.73;;;;;;;5.01;72.11;103028.28;5034517;28;20037;-84
2022/03/26 02:48:13;;;;;;;34.08;14.55;;;;;;;4.96;72.02;103031.03;5041245;28;20040;-83
2022/03/26 02:50:47;;;;;;;34.22;15.05;;;;;;;4.89;72.55;103021.22;5044219;28;20025;-87
2022/03/26 02:53:13;;;;;;;40.72;17.05;;;;;;;4.84;73.08;103017.69;5037589;28;20044;-87
2022/03/26 02:55:39;;;;;;;35.78;15.57;;;;;;;4.88;74.07;103026.66;5038745;28;20029;-82
2022/03/26 02:58:07;;;;;;;44.15;14.80;;;;;;;4.87;74.58;103025.75;5050516;28;20051;-82
2022/03/26 03:00:34;;;;;;;37.05;16.13;;;;;;;4.87;72.82;103025.75;5049371;28;20033;-83
2022/03/26 03:03:00;;;;;;;38.42;15.75;;;;;;;4.86;72.34;103022.19;5032379;28;20037;-87
2022/03/26 03:05:26;;;;;;;33.90;16.13;;;;;;;4.82;73.03;103022.25;5051548;28;20064;-85
2022/03/26 03:07:51;;;;;;;31.88;14.38;;;;;;;4.79;74.00;103027.66;5033818;28;20029;-83
2022/03/26 03:10:18;;;;;;;37.42;16.85;;;;;;;4.79;74.61;103024.97;5032766;28;20399;-86
2022/03/26 03:12:47;;;;;;;39.88;16.10;;;;;;;4.78;74.17;103015.97;5050490;28;20036;-82
2022/03/26 03:15:16;;;;;;;31.55;15.10;;;;;;;4.73;72.50;103023.25;5046085;28;20033;-85
2022/03/26 03:17:42;;;;;;;38.30;15.05;;;;;;;4.72;73.38;103018.78;5043598;28;20172;-83
2022/03/26 03:20:09;;;;;;;33.95;15.82;;;;;;;4.68;72.78;103013.44;5032735;28;20017;-83
2022/03/26 03:22:35;;;;;;;35.72;16.17;;;;;;;4.73;73.09;103030.44;5016965;28;20052;-83
2022/03/26 03:25:01;;;;;;;36.58;14.55;;;;;;;4.67;72.14;103028.72;5048000;28;20048;-85
2022/03/26 03:27:26;;;;;;;35.60;15.15;;;;;;;4.65;71.78;103024.25;5028636;28;20032;-86
2022/03/26 03:29:52;;;;;;;29.90;14.55;;;;;;;4.63;72.24;103026.97;5049122;28;20127;-82
2022/03/26 03:32:18;;;;;;;37.40;15.45;;;;;;;4.57;71.50;103029.75;5030888;28;20032;-85
2022/03/26 03:34:43;;;;;;;39.38;16.30;;;;;;;4.48;72.89;103016.41;5048825;28;20086;-84
2022/03/26 03:37:09;;;;;;;39.50;14.60;;;;;;;4.48;73.82;103033.47;5049974;28;20135;-83
2022/03/26 03:39:34;;;;;;;37.63;16.70;;;;;;;4.42;74.16;103027.22;5047040;28;20143;-83
2022/03/26 03:42:00;;;;;;;38.55;16.85;;;;;;;4.35;74.61;103023.72;5050213;28;20032;-83
2022/03/26 03:44:25;;;;;;;34.42;14.75;;;;;;;4.30;75.19;103029.16;5021131;28;20071;-87
2022/03/26 03:46:51;;;;;;;36.88;15.68;;;;;;;4.28;75.48;103035.47;5048960;28;20527;-85
2022/03/26 03:49:17;;;;;;;31.67;15.15;;;;;;;4.22;76.82;103033.75;5048504;28;20040;-83
2022/03/26 03:51:42;;;;;;;33.60;15.57;;;;;;;4.12;76.24;103032.06;5049706;28;20029;-86
2022/03/26 03:54:08;;;;;;;32.80;14.40;;;;;;;4.12;75.23;103041.94;5037491;28;20558;-86
2022/03/26 03:56:34;;;;;;;36.13;15.15;;;;;;;4.14;75.99;103037.41;5035993;28;20020;-87
2022/03/26 03:58:59;;;;;;;36.80;15.23;;;;;;;4.12;76.80;103036.56;5059372;28;20049;-86
2022/03/26 04:01:25;;;;;;;35.88;14.52;;;;;;;4.10;75.89;103041.94;5049528;28;20125;-87
2022/03/26 04:03:50;;;;;;;37.75;15.60;;;;;;;4.12;76.57;103036.56;5047629;28;20045;-83
2022/03/26 04:06:16;;;;;;;33.42;14.65;;;;;;;4.12;77.29;103032.06;5032715;28;20097;-85
2022/03/26 04:08:41;;;;;;;34.53;14.25;;;;;;;4.15;76.54;103041.88;5048447;28;20032;-83
2022/03/26 04:11:07;;;;;;;33.58;13.57;;;;;;;4.11;75.64;103045.56;5048737;28;20036;-86
2022/03/26 04:13:32;;;;;;;37.13;14.75;;;;;;;4.10;74.59;103047.31;5049067;28;20032;-86
2022/03/26 04:15:58;;;;;;;31.95;13.98;;;;;;;4.07;74.18;103044.69;5028421;28;20037;-83
2022/03/26 04:18:23;;;;;;;31.73;14.32;;;;;;;4.06;74.62;103042.91;5017140;28;20514;-85
2022/03/26 04:20:51;;;;;;;31.40;15.13;;;;;;;4.00;74.30;103035.75;5032564;28;20027;-85
2022/03/26 04:23:17;;;;;;;34.08;14.73;;;;;;;4.01;73.82;103042.03;5032460;28;20041;-83
2022/03/26 04:25:43;;;;;;;40.22;16.67;;;;;;;3.99;75.34;103036.66;5048140;28;20458;-86
2022/03/26 04:28:08;;;;;;;48.60;17.13;;;;;;;3.98;75.31;103040.28;5046749;28;20039;-85
2022/03/26 04:30:34;;;;;;;31.73;15.70;;;;;;;3.94;74.69;103032.25;5057635;28;20063;-87
2022/03/26 04:32:59;;;;;;;37.47;14.70;;;;;;;3.96;75.80;103035.78;5047578;28;20491;-87
2022/03/26 04:35:24;;;;;;;41.45;15.85;;;;;;;3.91;76.48;103034.94;5037917;28;20045;-87
2022/03/26 04:37:52;;;;;;;36.35;14.18;;;;;;;3.88;76.58;103037.69;5043995;28;20036;-83
2022/03/26 04:40:17;;;;;;;42.28;14.85;;;;;;;3.82;76.50;103042.22;5027676;28;20041;-83
2022/03/26 04:42:42;;;;;;;39.97;15.98;;;;;;;3.79;77.00;103041.34;5043253;28;20128;-83
2022/03/26 04:45:09;;;;;;;33.33;14.88;;;;;;;3.77;74.97;103041.34;5047424;28;20082;-83
2022/03/26 04:47:35;;;;;;;34.42;15.32;;;;;;;3.75;75.32;103035.09;5037409;28;20037;-87
2022/03/26 04:50:01;;;;;;;37.63;15.23;;;;;;;3.72;75.23;103029.72;5048118;28;20395;-83
2022/03/26 04:52:26;;;;;;;36.92;15.55;;;;;;;3.72;76.84;103039.59;5050515;28;20463;-83
2022/03/26 04:54:51;;;;;;;38.05;15.80;;;;;;;3.66;77.03;103027.09;5029284;28;20540;-83
2022/03/26 04:57:18;;;;;;;40.25;15.75;;;;;;;3.63;77.59;103034.31;5048740;28;20033;-83
2022/03/26 04:59:44;;;;;;;36.97;14.88;;;;;;;3.60;76.75;103034.34;5041902;28;20120;-85
2022/03/26 05:02:09;;;;;;;36.47;14.85;;;;;;;3.60;75.60;103035.25;5031694;28;20033;-83
2022/03/26 05:04:35;;;;;;;30.77;14.40;;;;;;;3.55;76.46;103032.59;5028768;28;20385;-86
2022/03/26 05:07:00;;;;;;;31.45;15.10;;;;;;;3.55;76.82;103034.38;5030568;28;20130;-83
2022/03/26 05:09:26;;;;;;;41.45;16.17;;;;;;;3.49;76.79;103032.59;5030333;28;20029;-87
2022/03/26 05:11:51;;;;;;;39.17;15.15;;;;;;;3.41;77.77;103039.88;5048373;28;20060;-87
2022/03/26 05:14:17;;;;;;;33.53;14.10;;;;;;;3.38;77.43;103041.69;5044640;28;20033;-86
2022/03/26 05:16:43;;;;;;;31.90;13.23;;;;;;;3.33;77.33;103036.34;5037420;28;20048;-87
2022/03/26 05:19:08;;;;;;;30.80;14.70;;;;;;;3.30;77.96;103039.03;5046305;28;20061;-83
2022/03/26 05:21:34;;;;;;;37.65;15.45;;;;;;;3.29;78.58;103048.91;5031728;28;20072;-85
2022/03/26 05:23:59;;;;;;;31.20;13.32;;;;;;;3.26;79.04;103051.63;5046959;28;20060;-84
2022/03/26 05:26:25;;;;;;;33.65;15.40;;;;;;;3.27;78.45;103048.03;5043227;28;20039;-83
2022/03/26 05:28:51;;;;;;;32.97;15.27;;;;;;;3.32;79.57;103056.97;5027239;28;20045;-85
2022/03/26 05:31:17;;;;;;;37.35;14.75;;;;;;;3.36;78.42;103055.16;5045087;28;20082;-86
2022/03/26 05:33:42;;;;;;;38.28;16.25;;;;;;;3.37;80.07;103053.34;5044806;28;20411;-83
2022/03/26 05:36:08;;;;;;;36.65;16.00;;;;;;;3.43;79.15;103062.25;5028498;28;20107;-83
2022/03/26 05:38:34;;;;;;;41.92;16.60;;;;;;;3.39;79.20;103057.81;5027287;28;20026;-86
2022/03/26 05:40:59;;;;;;;37.28;15.10;;;;;;;3.35;78.34;103050.66;5044671;28;20071;-83
2022/03/26 05:43:24;;;;;;;36.80;15.10;;;;;;;3.36;78.60;103062.31;5026093;28;20045;-86
2022/03/26 05:45:51;;;;;;;35.72;14.93;;;;;;;3.36;79.48;103073.06;5031873;28;20041;-86
2022/03/26 05:48:17;;;;;;;36.38;14.70;;;;;;;3.38;79.44;103071.28;5041627;28;20033;-86
2022/03/26 05:50:44;;;;;;;37.28;17.08;;;;;;;3.47;79.63;103072.09;5048532;28;20044;-83
2022/03/26 05:53:10;;;;;;;37.75;16.08;;;;;;;3.63;79.58;103077.38;5030931;28;20013;-83
2022/03/26 05:55:35;;;;;;;41.55;16.67;;;;;;;3.75;79.63;103075.47;5046429;28;20124;-83
2022/03/26 05:58:01;;;;;;;40.75;15.82;;;;;;;3.93;78.65;103081.63;5047158;28;20110;-84
2022/03/26 06:00:27;;;;;;;32.80;15.93;;;;;;;4.04;77.28;103087.78;5045426;28;20020;-85
2022/03/26 06:02:52;;;;;;;34.88;15.40;;;;;;;4.08;77.10;103085.06;5045568;28;20144;-83
2022/03/26 06:05:17;;;;;;;32.70;15.40;;;;;;;4.14;77.40;103092.19;5025706;28;20503;-84
2022/03/26 06:07:43;;;;;;;34.17;15.63;;;;;;;4.15;76.38;103087.69;5042904;28;20063;-86
2022/03/26 06:10:08;;;;;;;38.63;15.50;;;;;;;4.07;76.66;103080.59;5018844;28;20060;-85
2022/03/26 06:12:35;;;;;;;40.33;14.95;;;;;;;4.13;74.87;103086.81;5045151;28;20159;-83
2022/03/26 06:15:02;;;;;;;32.28;14.63;;;;;;;4.21;74.36;103085.84;5038570;28;20369;-85
2022/03/26 06:17:27;;;;;;;32.60;13.48;;;;;;;4.46;73.61;103083.78;5041262;28;20487;-86
2022/03/26 06:19:53;;;;;;;40.15;15.38;;;;;;;4.68;72.80;103076.34;5034645;28;20037;-85
2022/03/26 06:22:18;;;;;;;31.08;13.93;;;;;;;4.73;73.31;103085.25;5046139;28;20013;-83
2022/03/26 06:24:43;;;;;;;34.95;15.60;;;;;;;4.69;73.29;103085.31;5040952;28;20420;-83
2022/03/26 06:27:09;;;;;;;33.13;15.10;;;;;;;4.72;73.54;103096.06;5028744;28;20454;-83
2022/03/26 06:29:36;;;;;;;39.97;15.43;;;;;;;4.84;74.05;103090.50;5043011;28;20027;-85
2022/03/26 06:32:02;;;;;;;28.08;13.68;;;;;;;4.94;72.27;103096.69;5028604;28;20041;-86
2022/03/26 06:34:28;;;;;;;33.25;15.18;;;;;;;4.99;74.16;103101.13;5026980;28;20036;-84
2022/03/26 06:36:54;;;;;;;36.97;17.33;;;;;;;5.02;74.70;103101.06;5028281;28;20028;-82
2022/03/26 06:39:19;;;;;;;33.80;16.42;;;;;;;5.21;74.66;103104.41;5028304;28;20032;-83
2022/03/26 06:41:45;;;;;;;36.53;15.65;;;;;;;5.44;75.33;103104.09;5046829;28;20484;-86
2022/03/26 06:44:12;;;;;;;37.50;16.77;;;;;;;5.74;74.15;103118.06;5027112;28;20021;-83
2022/03/26 06:46:39;;;;;;;37.03;15.13;;;;;;;6.10;73.07;103114.75;5032375;28;20052;-85
2022/03/26 06:49:07;;;;;;;42.17;16.27;;;;;;;6.44;71.59;103118.69;5041786;28;20040;-84
2022/03/26 06:51:32;;;;;;;46.85;17.42;;;;;;;7.06;69.44;103108.41;5027953;28;20013;-83
2022/03/26 06:53:58;;;;;;;38.88;15.93;;;;;;;7.84;66.98;103106.63;5044661;28;20633;-81
2022/03/26 06:56:24;;;;;;;43.22;17.17;;;;;;;8.22;66.38;103108.34;5044395;28;20580;-83
2022/03/26 06:58:49;;;;;;;40.75;18.05;;;;;;;8.43;64.38;103110.50;5025584;28;20028;-85
2022/03/26 07:01:14;;;;;;;36.33;17.83;;;;;;;8.85;63.34;103107.53;5024197;28;20025;-85
2022/03/26 07:03:40;;;;;;;40.92;18.20;;;;;;;9.29;62.04;103118.91;5025962;28;20326;-86
2022/03/26 07:06:05;;;;;;;43.22;18.77;;;;;;;9.29;61.12;103116.19;5043478;28;20223;-86
2022/03/26 07:08:31;;;;;;;47.13;18.98;;;;;;;9.75;60.33;103124.72;5040335;28;20041;-85
2022/03/26 07:10:56;;;;;;;45.80;19.27;;;;;;;10.13;59.72;103115.28;5043643;28;20079;-83
2022/03/26 07:13:22;;;;;;;46.38;20.25;;;;;;;10.53;58.79;103122.06;5044489;28;20025;-84
2022/03/26 07:15:48;;;;;;;49.08;20.25;;;;;;;10.93;56.98;103125.13;5043730;28;20412;-82
2022/03/26 07:18:15;;;;;;;45.78;19.98;;;;;;;11.34;56.47;103113.59;5027017;28;20464;-84
2022/03/26 07:20:40;;;;;;;45.67;20.90;;;;;;;11.76;55.83;103116.44;5046254;28;20037;-83
2022/03/26 07:23:06;;;;;;;41.58;20.80;;;;;;;12.51;54.88;103114.16;5028136;28;20502;-86
2022/03/26 07:25:31;;;;;;;44.53;19.77;;;;;;;12.37;51.84;103116.59;5042386;28;20119;-86
2022/03/26 07:27:57;;;;;;;52.38;20.85;;;;;;;12.03;53.00;103114.44;5045529;28;20040;-86
2022/03/26 07:30:22;;;;;;;42.78;20.08;;;;;;;12.20;52.52;103119.16;5043919;28;20044;-84
2022/03/26 07:32:48;;;;;;;42.10;19.80;;;;;;;12.49;53.65;103117.88;5037505;28;20388;-83
2022/03/26 07:35:13;;;;;;;39.88;19.95;;;;;;;12.57;53.84;103120.28;5028686;28;20040;-83
2022/03/26 07:37:39;;;;;;;39.67;19.45;;;;;;;12.43;53.03;103123.63;5029494;28;20490;-87
2022/03/26 07:40:05;;;;;;;41.15;19.30;;;;;;;12.46;52.55;103118.94;5027993;28;20127;-85
2022/03/26 07:42:30;;;;;;;48.58;19.42;;;;;;;12.28;54.71;103121.56;5032813;28;20311;-87
2022/03/26 07:44:56;;;;;;;48.08;21.48;;;;;;;12.23;54.76;103129.97;5029981;28;20029;-83
2022/03/26 07:47:21;;;;;;;39.40;18.35;;;;;;;12.38;53.06;103123.81;5032638;28;20087;-87
2022/03/26 07:49:47;;;;;;;43.40;18.25;;;;;;;12.63;52.20;103126.34;5038754;28;20094;-83
2022/03/26 07:52:13;;;;;;;44.58;19.08;;;;;;;12.63;51.83;103120.00;5031721;28;20029;-83
2022/03/26 07:54:39;;;;;;;42.33;18.63;;;;;;;12.79;53.94;103131.16;5025867;28;20040;-83
2022/03/26 07:57:05;;;;;;;43.47;17.42;;;;;;;12.68;54.02;103131.63;5039662;28;20418;-82
2022/03/26 07:59:30;;;;;;;38.65;19.02;;;;;;;12.65;53.14;103127.19;5029919;28;20025;-83
2022/03/26 08:01:56;;;;;;;36.95;17.85;;;;;;;12.61;52.85;103119.22;5044733;28;20333;-86
2022/03/26 08:04:21;;;;;;;39.60;17.55;;;;;;;12.58;52.26;103132.97;5038556;28;20438;-87
2022/03/26 08:06:47;;;;;;;49.22;19.95;;;;;;;12.80;52.82;103139.28;5048184;28;20068;-83
2022/03/26 08:09:12;;;;;;;39.63;19.10;;;;;;;13.15;54.59;103132.19;5044271;28;20025;-87
2022/03/26 08:11:38;;;;;;;44.50;18.52;;;;;;;13.22;51.43;103128.22;5049992;28;20049;-83
2022/03/26 08:14:03;;;;;;;38.63;19.70;;;;;;;13.15;51.66;103134.00;5046117;28;20028;-82
2022/03/26 08:16:28;;;;;;;38.38;19.23;;;;;;;13.25;54.06;103135.41;5029905;28;20120;-85
2022/03/26 08:18:54;;;;;;;39.50;17.83;;;;;;;13.27;51.80;103133.50;5044833;28;20041;-87
2022/03/26 08:21:20;;;;;;;35.97;18.70;;;;;;;13.28;51.17;103135.25;5041626;28;20021;-86
2022/03/26 08:23:46;;;;;;;37.90;18.00;;;;;;;13.40;53.12;103144.75;5047203;28;20025;-85
2022/03/26 08:26:22;;;;;;;32.17;17.05;;;;;;;13.12;50.42;103132.34;5043723;28;20396;-84
2022/03/26 08:28:49;;;;;;;40.67;19.27;;;;;;;12.95;51.43;103151.34;5048478;28;20059;-82
2022/03/26 08:31:15;;;;;;;45.40;19.10;;;;;;;13.07;51.71;103147.19;5031623;28;20140;-82
2022/03/26 08:33:40;;;;;;;38.47;18.77;;;;;;;13.09;51.75;103157.06;5027717;28;20119;-83
2022/03/26 08:36:06;;;;;;;36.92;18.40;;;;;;;13.22;52.24;103154.69;5028036;28;20107;-83
2022/03/26 08:38:32;;;;;;;42.58;18.42;;;;;;;13.18;53.23;103147.56;5047093;28;20033;-82
2022/03/26 08:40:58;;;;;;;38.08;16.80;;;;;;;13.05;51.16;103151.81;5030277;28;20037;-84
2022/03/26 08:43:24;;;;;;;35.55;18.35;;;;;;;12.87;51.39;103156.25;5029654;28;20040;-85
2022/03/26 08:45:49;;;;;;;39.40;18.67;;;;;;;12.85;54.41;103156.34;5047152;28;20035;-83
2022/03/26 08:48:15;;;;;;;34.38;16.15;;;;;;;12.96;54.15;103166.78;5028963;28;20108;-82
2022/03/26 08:50:42;;;;;;;37.85;17.58;;;;;;;12.97;55.22;103155.78;5045144;28;20431;-87
2022/03/26 08:53:08;;;;;;;36.03;16.60;;;;;;;13.07;53.17;103158.09;5025113;28;20025;-83
2022/03/26 08:55:34;;;;;;;33.03;16.02;;;;;;;13.15;50.93;103154.06;5043681;28;20029;-85
2022/03/26 08:57:59;;;;;;;35.08;15.80;;;;;;;13.26;51.52;103150.84;5027379;28;20029;-85
2022/03/26 09:00:26;;;;;;;33.53;16.30;;;;;;;13.34;51.81;103151.41;5027119;28;20040;-86
2022/03/26 09:02:52;;;;;;;42.30;17.27;;;;;;;13.45;52.12;103161.81;5044387;28;20040;-86
2022/03/26 09:05:17;;;;;;;37.55;16.55;;;;;;;13.62;52.13;103159.16;5043902;28;20041;-84
2022/03/26 09:07:43;;;;;;;33.85;16.67;;;;;;;13.62;51.29;103164.63;5030269;28;20091;-84
2022/03/26 09:10:08;;;;;;;37.20;17.33;;;;;;;13.72;54.22;103156.88;5026847;28;20039;-85
2022/03/26 09:12:34;;;;;;;32.72;17.58;;;;;;;13.76;51.36;103163.97;5047516;28;20040;-82
2022/03/26 09:15:01;;;;;;;40.33;18.58;;;;;;;13.88;51.25;103157.00;5046105;28;20029;-83
2022/03/26 09:17:26;;;;;;;43.00;20.58;;;;;;;13.89;50.78;103172.44;5047431;28;20100;-83
2022/03/26 09:19:52;;;;;;;46.47;22.10;;;;;;;14.10;51.12;103168.66;5060022;28;20426;-83
2022/03/26 09:22:17;;;;;;;42.92;19.33;;;;;;;14.11;50.12;103167.69;5019145;28;20021;-86
2022/03/26 09:24:43;;;;;;;50.25;19.23;;;;;;;14.00;49.75;103172.81;5039942;28;20318;-83
2022/03/26 09:27:09;;;;;;;47.50;18.58;;;;;;;13.98;49.68;103169.25;5028381;28;20028;-83
2022/03/26 09:29:35;;;;;;;36.22;16.65;;;;;;;14.18;51.81;103171.00;5046675;28;20033;-86
2022/03/26 09:32:01;;;;;;;39.00;17.40;;;;;;;14.36;49.48;103171.91;5031123;28;20057;-85
2022/03/26 09:34:26;;;;;;;36.10;16.48;;;;;;;14.25;48.00;103156.91;5044691;28;20388;-82
2022/03/26 09:36:53;;;;;;;38.70;16.77;;;;;;;14.22;48.28;103173.53;5046331;28;20126;-86
2022/03/26 09:39:19;;;;;;;30.90;16.52;;;;;;;14.20;48.39;103160.84;5043870;28;20027;-85
2022/03/26 09:41:45;;;;;;;36.47;17.38;;;;;;;14.29;48.10;103161.28;5043515;28;20071;-82
2022/03/26 09:44:12;;;;;;;38.30;18.15;;;;;;;14.44;48.49;103172.41;5044684;28;20035;-83
2022/03/26 09:46:37;;;;;;;38.53;16.85;;;;;;;14.53;50.32;103158.25;5039962;28;20147;-84
2022/03/26 09:49:03;;;;;;;33.63;17.23;;;;;;;14.70;48.96;103157.38;5044980;28;20065;-86
2022/03/26 09:51:29;;;;;;;41.60;17.23;;;;;;;14.76;49.28;103173.50;5047488;28;20025;-82
2022/03/26 09:53:56;;;;;;;35.85;17.45;;;;;;;14.76;47.54;103170.75;5047079;28;20037;-83
2022/03/26 09:56:23;;;;;;;40.13;16.67;;;;;;;14.83;49.71;103155.78;5044725;28;20039;-83
2022/03/26 09:58:52;;;;;;;34.03;16.60;;;;;;;14.99;47.64;103162.19;5041570;28;20095;-85
2022/03/26 10:01:22;;;;;;;33.70;16.20;;;;;;;15.18;49.00;103159.34;5044291;28;20403;-86
2022/03/26 10:04:13;;;;;;;34.45;17.02;;;;;;;15.38;48.45;103165.56;5044767;28;20055;-82
2022/03/26 10:06:55;;;;;;;29.77;14.38;;;;;;;15.56;46.92;103161.78;5029917;28;20456;-83
2022/03/26 10:09:26;;;;;;;36.10;15.70;;;;;;;15.79;45.79;103155.03;5045947;28;20415;-86
2022/03/26 10:12:05;;;;;;;28.77;16.20;;;;;;;15.80;46.83;103157.69;5046677;28;20109;-83
2022/03/26 10:14:50;;;;;;;31.75;14.80;;;;;;;15.70;45.61;103158.31;5028950;28;20029;-85
2022/03/26 10:17:21;;;;;;;34.03;15.20;;;;;;;15.57;46.09;103148.00;5029710;28;20060;-83
2022/03/26 10:19:50;;;;;;;24.00;13.30;;;;;;;15.65;43.98;103139.34;5035413;28;20384;-82
2022/03/26 10:22:26;;;;;;;25.45;14.00;;;;;;;15.82;44.91;103153.00;5046608;28;20039;-86
2022/03/26 10:24:52;;;;;;;29.80;14.80;;;;;;;15.75;43.28;103154.31;5046747;28;20041;-82
2022/03/26 10:27:17;;;;;;;33.28;13.98;;;;;;;15.93;45.21;103146.00;5030032;28;20039;-82
2022/03/26 10:29:51;;;;;;;30.10;14.07;;;;;;;16.14;46.19;103143.88;5041627;28;20045;-83
2022/03/26 10:32:41;;;;;;;33.35;14.85;;;;;;;16.24;43.71;103151.44;5030059;28;20091;-87
2022/03/26 10:35:25;;;;;;;31.02;14.15;;;;;;;16.39;42.37;103148.75;5038796;28;20029;-84
2022/03/26 10:38:01;;;;;;;25.73;13.80;;;;;;;16.62;42.82;103142.75;5028460;28;20040;-86
2022/03/26 10:40:34;;;;;;;31.20;13.45;;;;;;;16.72;40.83;103145.84;5028256;28;20052;-83
2022/03/26 10:43:08;;;;;;;29.48;13.43;;;;;;;16.48;40.35;103146.34;5030497;28;20464;-83
2022/03/26 10:45:36;;;;;;;33.85;15.10;;;;;;;16.47;40.52;103129.97;5044825;28;20059;-83
2022/03/26 10:48:07;;;;;;;26.98;13.10;;;;;;;16.53;41.89;103140.56;5042071;28;20037;-85
2022/03/26 10:50:34;;;;;;;27.05;12.52;;;;;;;16.42;40.31;103130.25;5042672;28;20116;-83
2022/03/26 10:53:05;;;;;;;25.27;12.90;;;;;;;16.44;41.73;103136.50;5037766;28;20037;-86
2022/03/26 10:55:31;;;;;;;28.10;13.48;;;;;;;16.43;41.81;103129.25;5043854;28;20124;-82
2022/03/26 10:57:57;;;;;;;30.45;12.07;;;;;;;16.53;40.94;103126.81;5046930;28;20048;-86
2022/03/26 11:00:22;;;;;;;25.13;10.95;;;;;;;16.54;40.10;103129.47;5045550;28;20043;-83
2022/03/26 11:02:48;;;;;;;24.35;12.18;;;;;;;16.59;41.53;103126.44;5025659;28;20467;-83
2022/03/26 11:05:14;;;;;;;23.65;12.68;;;;;;;16.73;42.83;103132.00;5036444;28;20045;-86
2022/03/26 11:07:41;;;;;;;28.02;12.65;;;;;;;17.02;41.02;103129.28;5047541;28;20024;-85
2022/03/26 11:10:12;;;;;;;27.70;13.73;;;;;;;17.16;40.30;103126.56;5042008;28;20084;-88